Time;durP1;ratioP1;P1;durP2;ratioP2;P2;SDS_P1;SDS_P2;PMS_P1;PMS_P2;Temp;Humidity;BMP_temperature;BMP_pressure;BME280_temperature;BME280_humidity;BME280_pressure;Samples;Min_cycle;Max_cycle;Signal;HPM_P1;HPM_P2
2022/12/26 00:00:26;;;;;;;2.33;1.90;;;11.70;99.90;;;;;;5049497;28;20556;-73
2022/12/26 00:02:51;;;;;;;1.83;1.73;;;11.80;99.90;;;;;;5051197;28;20255;-74
2022/12/26 00:05:17;;;;;;;3.73;2.30;;;11.70;99.90;;;;;;5038263;28;20190;-73
2022/12/26 00:07:42;;;;;;;2.50;1.83;;;11.70;99.90;;;;;;5036477;28;20239;-73
2022/12/26 00:10:08;;;;;;;2.53;1.93;;;11.60;99.90;;;;;;5051324;28;20178;-73
2022/12/26 00:12:34;;;;;;;2.00;1.77;;;11.60;99.90;;;;;;5049305;28;20210;-73
2022/12/26 00:14:59;;;;;;;13.00;2.80;;;11.50;99.90;;;;;;5051320;28;20177;-73
2022/12/26 00:17:25;;;;;;;2.80;2.00;;;11.50;99.90;;;;;;5049274;28;20623;-73
2022/12/26 00:19:50;;;;;;;4.27;2.50;;;11.40;99.90;;;;;;5031413;28;20646;-73
2022/12/26 00:22:17;;;;;;;2.60;2.30;;;11.40;99.90;;;;;;5030089;28;20185;-73
2022/12/26 00:24:42;;;;;;;4.03;2.70;;;11.30;99.90;;;;;;5029797;28;20657;-73
2022/12/26 00:27:08;;;;;;;3.30;2.40;;;11.30;99.90;;;;;;5029425;28;20416;-72
2022/12/26 00:29:33;;;;;;;2.97;2.00;;;11.30;99.90;;;;;;5046761;28;20191;-72
2022/12/26 00:31:59;;;;;;;2.57;2.00;;;11.30;99.90;;;;;;5048864;28;20202;-72
2022/12/26 00:34:24;;;;;;;3.03;2.10;;;11.30;99.90;;;;;;5033260;28;20185;-72
2022/12/26 00:36:50;;;;;;;3.50;2.50;;;11.40;99.90;;;;;;5040919;28;20208;-72
2022/12/26 00:39:16;;;;;;;4.80;2.60;;;11.40;99.90;;;;;;5050774;28;20561;-72
2022/12/26 00:41:41;;;;;;;4.57;2.60;;;11.30;99.90;;;;;;5049014;28;20196;-72
2022/12/26 00:44:07;;;;;;;3.80;2.20;;;11.30;99.90;;;;;;5051002;28;20427;-72
2022/12/26 00:46:33;;;;;;;4.30;2.50;;;11.30;99.90;;;;;;5042469;28;20698;-72
2022/12/26 00:48:59;;;;;;;3.70;2.47;;;11.30;99.90;;;;;;5031055;28;20189;-72
2022/12/26 00:51:24;;;;;;;4.87;3.10;;;11.20;99.90;;;;;;5036545;28;20253;-73
2022/12/26 00:53:50;;;;;;;3.37;2.20;;;11.20;99.90;;;;;;5049198;28;20920;-72
2022/12/26 00:56:16;;;;;;;3.67;2.33;;;11.20;99.90;;;;;;5050583;28;20197;-72
2022/12/26 00:58:41;;;;;;;4.77;2.30;;;11.10;99.90;;;;;;5047473;28;20188;-72
2022/12/26 01:01:16;;;;;;;4.87;2.43;;;11.10;99.90;;;;;;5030462;28;20272;-72
2022/12/26 01:03:44;;;;;;;4.23;2.50;;;11.10;99.90;;;;;;5035743;28;20254;-72
2022/12/26 01:06:09;;;;;;;3.77;2.53;;;11.00;99.90;;;;;;5054491;28;20423;-72
2022/12/26 01:08:35;;;;;;;3.67;2.50;;;11.00;99.90;;;;;;5053162;28;20429;-72
2022/12/26 01:11:10;;;;;;;3.93;2.47;;;11.00;99.90;;;;;;5034197;28;20201;-71
2022/12/26 01:13:36;;;;;;;3.97;2.10;;;10.90;99.90;;;;;;5034633;28;20616;-73
2022/12/26 01:16:03;;;;;;;4.13;2.80;;;10.90;99.90;;;;;;5054069;28;20551;-73
2022/12/26 01:18:29;;;;;;;2.07;1.87;;;10.90;99.90;;;;;;5054192;28;20423;-72
2022/12/26 01:21:00;;;;;;;5.50;1.73;;;10.90;99.90;;;;;;5035003;28;20430;-72
2022/12/26 01:23:25;;;;;;;3.73;2.33;;;10.80;99.90;;;;;;5051188;28;20185;-72
2022/12/26 01:25:51;;;;;;;4.00;2.37;;;10.80;99.90;;;;;;5054186;28;20775;-72
2022/12/26 01:28:16;;;;;;;2.63;2.43;;;10.80;99.90;;;;;;5037819;28;20203;-72
2022/12/26 01:30:42;;;;;;;7.33;2.30;;;10.70;99.90;;;;;;5034292;28;20186;-71
2022/12/26 01:33:07;;;;;;;4.33;2.73;;;10.60;99.90;;;;;;5047670;28;20191;-73
2022/12/26 01:35:33;;;;;;;3.50;2.43;;;10.60;99.90;;;;;;5053780;28;20197;-72
2022/12/26 01:37:58;;;;;;;3.70;2.40;;;10.60;99.90;;;;;;5053225;28;20262;-72
2022/12/26 01:40:24;;;;;;;2.43;2.03;;;10.70;99.90;;;;;;5053714;28;20227;-73
2022/12/26 01:42:50;;;;;;;3.10;2.40;;;10.60;99.90;;;;;;5042290;28;20260;-72
2022/12/26 01:45:21;;;;;;;2.80;1.80;;;10.60;99.90;;;;;;5032532;28;20959;-72
2022/12/26 01:47:52;;;;;;;3.47;2.13;;;10.60;99.90;;;;;;5041120;28;20264;-72
2022/12/26 01:50:45;;;;;;;2.87;2.63;;;10.70;99.90;;;;;;5032097;28;20430;-72
2022/12/26 01:53:22;;;;;;;2.70;2.50;;;10.70;99.90;;;;;;5032744;28;20440;-73
2022/12/26 01:55:57;;;;;;;4.27;2.57;;;10.80;99.90;;;;;;5032132;28;20939;-73
2022/12/26 01:58:28;;;;;;;3.63;2.83;;;10.80;99.90;;;;;;5044812;28;20506;-72
2022/12/26 03:31:31;;;;;;;2.33;2.10;;;10.10;99.90;;;;;;5783287;22;20501;-68
2022/12/26 03:34:17;;;;;;;2.13;1.90;;;10.20;99.90;;;;;;5028503;28;20451;-70
2022/12/26 03:37:12;;;;;;;2.97;2.40;;;10.20;99.90;;;;;;5031452;28;20213;-70
2022/12/26 04:19:24;;;;;;;2.03;1.53;;;10.80;99.90;;;;;;4988359;28;20974;-71
2022/12/26 04:44:36;;;;;;;3.83;2.00;;;11.60;99.90;;;;;;5015259;28;20804;-71
2022/12/26 04:47:01;;;;;;;6.23;2.17;;;11.70;99.90;;;;;;5015104;28;20421;-72
2022/12/26 04:52:13;;;;;;;4.00;1.63;;;11.80;99.90;;;;;;5014962;28;20201;-73
2022/12/26 04:54:39;;;;;;;3.03;1.70;;;11.80;99.90;;;;;;5016803;28;20433;-73
2022/12/26 04:57:05;;;;;;;2.60;2.00;;;11.70;99.90;;;;;;5016945;28;20461;-72
2022/12/26 04:59:31;;;;;;;2.37;2.03;;;11.80;99.90;;;;;;5017601;28;20424;-73
2022/12/26 05:10:20;;;;;;;2.80;1.87;;;11.60;99.90;;;;;;5014979;28;20441;-72
2022/12/26 05:12:46;;;;;;;2.60;1.80;;;11.70;99.90;;;;;;5014006;28;20528;-72
2022/12/26 05:15:12;;;;;;;2.53;1.63;;;11.70;99.90;;;;;;5014116;28;20572;-72
2022/12/26 05:28:49;;;;;;;2.87;1.67;;;11.80;99.90;;;;;;5014594;28;20855;-72
2022/12/26 05:31:16;;;;;;;3.47;1.53;;;11.80;99.90;;;;;;5013653;28;20574;-72
2022/12/26 05:36:32;;;;;;;2.70;2.27;;;11.80;99.90;;;;;;5014537;28;20567;-72
2022/12/26 05:38:57;;;;;;;3.40;2.10;;;11.80;99.90;;;;;;5013623;28;20616;-72
2022/12/26 05:41:23;;;;;;;8.23;1.47;;;11.70;99.90;;;;;;5013912;28;20772;-73
2022/12/26 05:43:49;;;;;;;2.90;1.63;;;11.70;99.90;;;;;;5014093;28;20647;-72
2022/12/26 05:46:14;;;;;;;2.50;1.87;;;11.70;99.90;;;;;;5013895;28;20302;-72
2022/12/26 05:48:40;;;;;;;1.30;1.20;;;11.70;99.90;;;;;;5013452;28;20186;-72
2022/12/26 05:51:06;;;;;;;2.40;2.00;;;11.70;99.90;;;;;;5013428;28;20201;-72
2022/12/26 05:53:32;;;;;;;2.20;1.80;;;11.60;99.90;;;;;;5013926;28;20188;-72
2022/12/26 05:56:12;;;;;;;2.70;2.17;;;11.70;99.90;;;;;;5013680;28;20207;-72
2022/12/26 05:58:39;;;;;;;2.23;1.90;;;11.70;99.90;;;;;;5012405;28;20541;-72
2022/12/26 06:01:10;;;;;;;3.70;2.27;;;11.70;99.90;;;;;;5013226;28;20820;-71
2022/12/26 06:03:37;;;;;;;2.90;1.77;;;11.70;99.90;;;;;;5013767;28;20440;-72
2022/12/26 06:06:03;;;;;;;2.03;1.70;;;11.80;99.90;;;;;;5011972;28;20436;-72
2022/12/26 06:08:29;;;;;;;4.03;2.10;;;11.80;99.90;;;;;;5013822;28;20414;-72
2022/12/26 06:10:54;;;;;;;2.07;1.43;;;11.80;99.90;;;;;;5013284;28;20528;-72
2022/12/26 06:13:20;;;;;;;6.43;1.90;;;11.90;99.90;;;;;;5013232;28;20214;-72
2022/12/26 06:15:45;;;;;;;1.73;1.57;;;11.90;99.90;;;;;;5013283;28;20245;-72
2022/12/26 06:18:11;;;;;;;2.50;1.90;;;11.90;99.90;;;;;;5013263;28;20182;-72
2022/12/26 06:20:40;;;;;;;1.93;1.63;;;11.90;99.90;;;;;;5013205;28;20220;-72
2022/12/26 06:23:05;;;;;;;2.87;2.03;;;11.90;99.90;;;;;;5013080;28;20521;-72
2022/12/26 06:25:31;;;;;;;4.27;1.77;;;11.80;99.90;;;;;;5012907;28;20425;-72
2022/12/26 06:27:56;;;;;;;1.60;1.50;;;11.90;99.90;;;;;;5013720;28;20283;-73
2022/12/26 06:30:22;;;;;;;4.23;2.07;;;11.90;99.90;;;;;;5012954;28;20198;-72
2022/12/26 06:32:47;;;;;;;2.23;2.13;;;11.80;99.90;;;;;;5012597;28;20562;-73
2022/12/26 06:35:13;;;;;;;2.60;1.90;;;11.80;99.90;;;;;;5013052;28;20252;-73
2022/12/26 06:37:38;;;;;;;2.90;1.50;;;11.80;99.90;;;;;;5012907;28;20217;-73
2022/12/26 06:40:05;;;;;;;2.03;1.80;;;11.80;99.90;;;;;;5012928;28;20650;-72
2022/12/26 06:42:30;;;;;;;3.30;1.77;;;11.80;99.90;;;;;;5012502;28;20209;-72
2022/12/26 06:44:56;;;;;;;2.20;2.00;;;11.80;99.90;;;;;;5012964;28;20410;-72
2022/12/26 06:47:21;;;;;;;5.93;2.30;;;11.80;99.90;;;;;;5012734;28;20189;-72
2022/12/26 06:49:47;;;;;;;2.30;1.93;;;11.80;99.90;;;;;;5013086;28;20659;-72
2022/12/26 06:52:13;;;;;;;2.70;1.63;;;11.70;99.90;;;;;;5012122;28;20293;-72
2022/12/26 06:54:39;;;;;;;2.10;1.90;;;11.80;99.90;;;;;;5012900;28;20159;-72
2022/12/26 06:57:05;;;;;;;3.57;1.80;;;11.80;99.90;;;;;;5012275;28;20465;-72
2022/12/26 06:59:30;;;;;;;5.00;2.20;;;11.80;99.90;;;;;;5013089;28;20167;-72
2022/12/26 07:01:56;;;;;;;1.80;1.70;;;11.80;99.90;;;;;;5011466;28;20205;-72
2022/12/26 07:04:21;;;;;;;2.17;1.43;;;11.80;99.90;;;;;;5012684;28;20213;-70
2022/12/26 07:06:47;;;;;;;4.53;1.87;;;11.90;99.90;;;;;;5012470;28;20666;-71
2022/12/26 07:09:15;;;;;;;5.60;2.27;;;11.90;99.90;;;;;;5012520;28;20189;-71
2022/12/26 07:11:44;;;;;;;1.80;1.70;;;11.90;99.90;;;;;;5012231;28;20199;-71
2022/12/26 07:14:10;;;;;;;6.13;2.40;;;11.90;99.90;;;;;;5012449;28;20424;-70
2022/12/26 07:16:37;;;;;;;2.93;2.10;;;11.90;99.90;;;;;;5012337;28;20560;-71
2022/12/26 07:19:04;;;;;;;4.10;3.13;;;11.80;99.90;;;;;;5012282;28;20422;-70
2022/12/26 07:21:30;;;;;;;1.90;1.80;;;11.80;99.90;;;;;;5011806;28;20809;-70
2022/12/26 07:23:55;;;;;;;2.70;1.80;;;11.80;99.90;;;;;;5012111;28;20425;-70
2022/12/26 07:26:23;;;;;;;1.83;1.73;;;11.80;99.90;;;;;;5027450;28;20174;-71
2022/12/26 07:28:52;;;;;;;2.10;1.70;;;11.80;99.90;;;;;;5012163;28;20189;-70
2022/12/26 07:31:19;;;;;;;5.20;2.20;;;11.90;99.90;;;;;;5011191;28;20435;-71
2022/12/26 07:33:49;;;;;;;2.77;1.67;;;11.90;99.90;;;;;;4997324;28;20422;-70
2022/12/26 07:36:14;;;;;;;2.60;2.17;;;11.90;99.90;;;;;;4992215;28;20469;-71
2022/12/26 07:38:40;;;;;;;1.57;1.47;;;11.90;99.90;;;;;;4998796;28;20425;-70
2022/12/26 07:43:50;;;;;;;2.37;2.07;;;11.90;99.90;;;;;;5010848;28;20236;-69
2022/12/26 07:46:15;;;;;;;2.33;1.77;;;11.90;99.90;;;;;;5010308;28;20453;-70
2022/12/26 07:48:41;;;;;;;2.90;2.07;;;11.90;99.90;;;;;;5010898;28;20211;-70
2022/12/26 07:51:06;;;;;;;4.67;1.80;;;11.90;99.90;;;;;;5010269;28;20553;-69
2022/12/26 07:53:32;;;;;;;2.43;1.80;;;11.90;99.90;;;;;;5010826;28;20660;-70
2022/12/26 07:56:00;;;;;;;4.37;2.50;;;11.80;99.90;;;;;;5011544;28;20210;-70
2022/12/26 07:58:26;;;;;;;2.90;2.20;;;11.70;99.90;;;;;;5011475;28;20249;-70
2022/12/26 08:00:51;;;;;;;2.00;1.73;;;11.70;99.90;;;;;;5011489;28;20973;-71
2022/12/26 08:03:17;;;;;;;3.17;1.93;;;11.70;99.90;;;;;;5005252;28;20241;-70
2022/12/26 08:05:47;;;;;;;2.07;1.97;;;11.70;99.90;;;;;;5010747;28;20633;-70
2022/12/26 08:08:13;;;;;;;1.33;1.23;;;11.70;99.90;;;;;;5009997;28;20214;-71
2022/12/26 08:10:38;;;;;;;6.30;2.00;;;11.80;99.90;;;;;;5010741;28;20452;-70
2022/12/26 08:13:04;;;;;;;1.77;1.60;;;11.80;99.90;;;;;;5010053;28;20206;-70
2022/12/26 08:15:29;;;;;;;2.23;2.03;;;11.90;99.90;;;;;;5010727;28;20912;-70
2022/12/26 08:17:55;;;;;;;5.90;2.30;;;11.90;99.90;;;;;;5010423;28;20216;-71
2022/12/26 08:20:20;;;;;;;5.03;1.90;;;11.80;99.90;;;;;;5010484;28;21016;-71
2022/12/26 08:22:46;;;;;;;1.93;1.80;;;11.80;99.90;;;;;;5010657;28;20202;-70
2022/12/26 08:25:11;;;;;;;10.90;2.90;;;11.80;99.90;;;;;;5009928;28;20246;-70
2022/12/26 08:27:37;;;;;;;1.97;1.87;;;11.70;99.90;;;;;;5010741;28;20273;-70
2022/12/26 08:30:03;;;;;;;2.90;2.27;;;11.80;99.90;;;;;;5010042;28;20226;-69
2022/12/26 08:32:29;;;;;;;2.93;2.13;;;11.70;99.90;;;;;;5010285;28;20214;-71
2022/12/26 08:34:55;;;;;;;2.80;1.87;;;11.70;99.90;;;;;;5010257;28;21036;-70
2022/12/26 08:37:22;;;;;;;2.30;2.10;;;11.80;99.90;;;;;;5010014;28;20225;-71
2022/12/26 08:39:48;;;;;;;4.33;1.73;;;11.70;99.90;;;;;;5010658;28;20243;-71
2022/12/26 08:42:14;;;;;;;2.60;1.80;;;11.70;99.90;;;;;;5009641;28;20438;-70
2022/12/26 08:44:39;;;;;;;7.33;5.13;;;11.70;99.90;;;;;;5010500;28;20445;-71
2022/12/26 08:47:05;;;;;;;3.70;3.40;;;11.70;99.90;;;;;;5010224;28;20210;-70
2022/12/26 08:49:30;;;;;;;2.60;2.20;;;11.70;99.90;;;;;;5010020;28;20225;-69
2022/12/26 08:51:56;;;;;;;3.43;2.93;;;11.70;99.90;;;;;;5009891;28;20337;-70
2022/12/26 08:54:21;;;;;;;2.93;2.70;;;11.70;99.90;;;;;;5010067;28;20226;-70
2022/12/26 08:56:47;;;;;;;6.47;3.63;;;11.60;99.90;;;;;;5009939;28;20225;-71
2022/12/26 08:59:13;;;;;;;2.53;2.43;;;11.60;99.90;;;;;;5010386;28;20221;-70
2022/12/26 09:01:39;;;;;;;4.17;2.57;;;11.50;99.90;;;;;;5009668;28;20245;-70
2022/12/26 09:04:06;;;;;;;3.07;2.70;;;11.50;99.90;;;;;;5010684;28;20421;-71
2022/12/26 09:06:33;;;;;;;6.37;3.07;;;11.40;99.90;;;;;;5011325;28;20212;-70
2022/12/26 09:08:59;;;;;;;3.27;2.90;;;11.40;99.90;;;;;;5010995;28;20421;-71
2022/12/26 09:11:25;;;;;;;3.63;3.00;;;11.30;99.90;;;;;;4990085;28;20451;-72
2022/12/26 09:13:51;;;;;;;4.37;2.50;;;11.30;99.90;;;;;;4995977;28;20480;-72
2022/12/26 09:16:22;;;;;;;3.10;2.80;;;11.20;99.90;;;;;;5009165;28;20477;-72
2022/12/26 09:18:53;;;;;;;3.10;2.87;;;11.10;99.90;;;;;;5009059;28;20456;-72
2022/12/26 09:21:19;;;;;;;4.77;2.77;;;11.10;99.90;;;;;;5008627;28;20971;-72
2022/12/26 09:23:44;;;;;;;4.80;3.20;;;11.00;99.90;;;;;;5010434;28;20431;-72
2022/12/26 09:26:13;;;;;;;3.43;3.10;;;10.90;99.90;;;;;;5013487;28;20181;-72
2022/12/26 09:28:39;;;;;;;3.63;3.30;;;10.90;99.90;;;;;;5014853;28;20174;-72
2022/12/26 09:31:11;;;;;;;6.83;3.77;;;10.90;99.90;;;;;;5013589;28;20437;-71
2022/12/26 09:33:37;;;;;;;4.53;2.90;;;10.90;99.90;;;;;;5014698;28;20412;-70
2022/12/26 09:36:11;;;;;;;5.53;3.60;;;10.90;99.90;;;;;;5009749;28;20417;-71
2022/12/26 09:38:36;;;;;;;3.60;3.30;;;10.90;99.90;;;;;;5014350;28;20465;-71
2022/12/26 09:41:33;;;;;;;6.43;5.67;;;10.90;99.90;;;;;;5013599;28;20520;-72
2022/12/26 09:44:19;;;;;;;6.20;3.50;;;10.90;99.90;;;;;;5014370;28;20550;-72
2022/12/26 09:46:52;;;;;;;10.73;5.13;;;11.00;99.90;;;;;;5013811;28;20421;-72
2022/12/26 09:49:28;;;;;;;6.77;4.80;;;10.90;99.90;;;;;;5014253;28;20417;-72
2022/12/26 09:51:57;;;;;;;6.60;4.67;;;10.90;99.90;;;;;;5013698;28;20444;-73
2022/12/26 09:54:33;;;;;;;6.27;4.27;;;10.70;99.90;;;;;;5014087;28;20417;-74
2022/12/26 09:57:05;;;;;;;7.30;5.33;;;10.60;99.90;;;;;;5005333;28;20464;-73
2022/12/26 09:59:40;;;;;;;7.57;4.20;;;10.50;99.90;;;;;;4994532;28;20589;-73
2022/12/26 10:02:15;;;;;;;5.60;5.07;;;10.50;99.90;;;;;;5005553;28;20457;-73
2022/12/26 10:04:41;;;;;;;7.60;5.27;;;10.40;99.90;;;;;;5006805;28;20953;-73
2022/12/26 10:07:19;;;;;;;6.00;5.10;;;10.30;99.90;;;;;;5006056;28;20427;-72
2022/12/26 10:09:54;;;;;;;10.38;6.05;;;10.20;99.90;;;;;;5008734;28;20419;-72
2022/12/26 10:12:38;;;;;;;10.37;6.30;;;10.20;99.90;;;;;;5007539;28;20570;-72
2022/12/26 10:15:33;;;;;;;8.00;6.70;;;10.20;99.90;;;;;;5010599;28;20432;-72
2022/12/26 10:18:10;;;;;;;7.80;5.60;;;10.10;99.90;;;;;;5011771;28;20464;-73
2022/12/26 10:20:51;;;;;;;6.17;5.57;;;10.10;99.90;;;;;;5013394;28;20582;-72
2022/12/26 10:23:53;;;;;;;7.90;5.27;;;10.00;99.90;;;;;;5007790;28;20448;-73
2022/12/26 10:26:30;;;;;;;7.87;4.97;;;10.00;99.90;;;;;;5007517;28;20432;-73
2022/12/26 10:29:08;;;;;;;14.80;5.57;;;10.00;99.90;;;;;;4997850;28;20441;-73
2022/12/26 10:31:49;;;;;;;7.43;4.90;;;10.00;99.90;;;;;;5010548;28;20903;-72
2022/12/26 10:34:17;;;;;;;8.83;5.97;;;10.00;99.90;;;;;;5008450;28;20446;-72
2022/12/26 10:36:45;;;;;;;9.90;4.80;;;10.00;99.90;;;;;;5011698;28;20468;-72
2022/12/26 10:39:28;;;;;;;1999.90;999.90;;;10.10;99.90;;;;;;5012825;28;20957;-73
2022/12/26 10:41:58;;;;;;;119.27;52.73;;;10.10;99.90;;;;;;5011481;28;20442;-72
2022/12/26 10:44:24;;;;;;;17.53;3.90;;;10.10;99.90;;;;;;5007096;28;20435;-72
2022/12/26 10:47:00;;;;;;;1999.90;999.90;;;10.10;99.90;;;;;;5012287;28;20432;-72
2022/12/26 10:49:26;;;;;;;1999.90;999.90;;;10.10;99.90;;;;;;5012039;28;20514;-72
2022/12/26 10:51:55;;;;;;;102.73;13.97;;;10.20;99.90;;;;;;5011836;28;20579;-72
2022/12/26 10:54:20;;;;;;;78.83;4.50;;;10.20;99.90;;;;;;5012109;28;20436;-72
2022/12/26 10:56:48;;;;;;;81.33;4.87;;;10.30;99.90;;;;;;5011569;28;20461;-71
2022/12/26 10:59:21;;;;;;;77.23;4.53;;;10.30;99.90;;;;;;5011339;28;20210;-72
2022/12/26 11:01:47;;;;;;;195.60;176.10;;;10.30;99.90;;;;;;5010681;28;20458;-72
2022/12/26 11:04:24;;;;;;;344.70;318.53;;;10.30;99.90;;;;;;5010392;28;20421;-73
2022/12/26 11:06:52;;;;;;;259.87;232.77;;;10.30;99.90;;;;;;5009667;28;20440;-73
2022/12/26 11:09:38;;;;;;;151.47;58.63;;;10.40;99.90;;;;;;5011659;28;20430;-72
2022/12/26 11:12:05;;;;;;;190.97;162.80;;;10.30;99.90;;;;;;5011145;28;20452;-73
2022/12/26 11:14:40;;;;;;;1999.90;999.90;;;10.30;99.90;;;;;;5011723;28;20511;-73
2022/12/26 11:17:10;;;;;;;1407.83;712.20;;;10.30;99.90;;;;;;5010223;28;20555;-72
2022/12/26 11:19:39;;;;;;;99.87;12.33;;;10.30;99.90;;;;;;5011392;28;20437;-72
2022/12/26 11:22:24;;;;;;;97.67;11.50;;;10.30;99.90;;;;;;5007950;28;20461;-72
2022/12/26 11:25:19;;;;;;;97.53;11.00;;;10.40;99.90;;;;;;5001990;28;20507;-72
2022/12/26 11:27:56;;;;;;;92.97;11.53;;;10.40;99.90;;;;;;5009853;28;20448;-72
2022/12/26 11:30:31;;;;;;;16.70;1.27;;;10.50;99.90;;;;;;5010796;28;20435;-72
2022/12/26 11:33:10;;;;;;;16.70;1.20;;;10.50;99.90;;;;;;5010641;28;20465;-71
2022/12/26 11:35:43;;;;;;;16.27;1.50;;;10.60;99.90;;;;;;5023813;28;20444;-72
2022/12/26 11:38:33;;;;;;;16.00;0.90;;;10.60;99.90;;;;;;5006855;28;20499;-72
2022/12/26 11:41:31;;;;;;;25.90;1.60;;;10.60;99.90;;;;;;5008656;28;20464;-71
2022/12/26 11:44:09;;;;;;;28.83;1.33;;;10.60;99.90;;;;;;4999349;28;20858;-71
2022/12/26 11:46:59;;;;;;;22.67;2.00;;;10.60;99.90;;;;;;5010711;28;20419;-72
2022/12/26 11:49:28;;;;;;;19.40;0.80;;;10.70;99.90;;;;;;5008011;28;20437;-72
2022/12/26 11:51:55;;;;;;;21.00;0.90;;;10.60;99.90;;;;;;5007055;28;20446;-72
2022/12/26 11:54:21;;;;;;;20.23;0.70;;;10.60;99.90;;;;;;5010730;28;21004;-71
2022/12/26 11:56:47;;;;;;;23.70;0.97;;;10.60;99.90;;;;;;5011192;28;20559;-72
2022/12/26 11:59:19;;;;;;;22.50;0.80;;;10.60;99.90;;;;;;5011480;28;20182;-72
2022/12/26 12:01:45;;;;;;;24.67;0.80;;;10.50;99.90;;;;;;5011102;28;20437;-71
2022/12/26 12:04:11;;;;;;;24.67;1.13;;;10.50;99.90;;;;;;5011961;28;20439;-71
2022/12/26 12:07:02;;;;;;;24.83;0.87;;;10.50;99.90;;;;;;5008889;28;20863;-71
2022/12/26 12:09:45;;;;;;;27.00;0.83;;;10.50;99.90;;;;;;5011782;28;20432;-71
2022/12/26 12:12:21;;;;;;;26.40;1.23;;;10.60;99.90;;;;;;5008783;28;20491;-71
2022/12/26 12:15:08;;;;;;;26.37;1.07;;;10.60;99.90;;;;;;5011860;28;20893;-71
2022/12/26 12:18:06;;;;;;;27.77;0.83;;;10.70;99.90;;;;;;5010077;28;20929;-72
2022/12/26 12:21:08;;;;;;;35.37;1.10;;;10.80;99.90;;;;;;4999002;28;20436;-72
2022/12/26 12:23:56;;;;;;;47.30;1.10;;;10.90;99.90;;;;;;5006780;28;20428;-71
2022/12/26 12:26:39;;;;;;;46.20;1.97;;;10.90;99.90;;;;;;5008531;28;20431;-71
2022/12/26 12:29:27;;;;;;;43.27;0.80;;;11.00;99.90;;;;;;5011359;28;20457;-71
2022/12/26 12:32:20;;;;;;;45.80;0.93;;;11.00;99.90;;;;;;5010919;28;20452;-72
2022/12/26 12:34:58;;;;;;;37.30;0.97;;;11.00;99.90;;;;;;5010457;28;20521;-71
2022/12/26 12:38:01;;;;;;;38.10;1.70;;;11.00;99.90;;;;;;5008874;28;20473;-71
2022/12/26 12:40:42;;;;;;;32.17;2.60;;;11.00;99.90;;;;;;5011352;28;20437;-71
2022/12/26 12:43:28;;;;;;;29.40;1.30;;;11.00;99.90;;;;;;5010261;28;20429;-71
2022/12/26 12:46:27;;;;;;;28.77;1.00;;;11.00;99.90;;;;;;5010604;28;20415;-71
2022/12/26 12:49:27;;;;;;;34.27;1.10;;;11.00;99.90;;;;;;4992043;28;20868;-71
2022/12/26 12:52:05;;;;;;;69.20;2.33;;;11.10;99.90;;;;;;5005822;28;20445;-71
2022/12/26 12:54:45;;;;;;;51.40;0.90;;;11.00;99.90;;;;;;5009634;28;21013;-71
2022/12/26 12:57:29;;;;;;;51.80;1.20;;;11.10;99.90;;;;;;5018394;28;20479;-72
2022/12/26 12:59:57;;;;;;;50.73;1.40;;;11.00;99.90;;;;;;5012746;28;20456;-70
2022/12/26 13:02:37;;;;;;;51.10;0.90;;;11.00;99.90;;;;;;5011114;28;20462;-72
2022/12/26 13:05:21;;;;;;;51.20;1.00;;;11.10;99.90;;;;;;5013367;28;20461;-71
2022/12/26 13:07:55;;;;;;;49.63;1.27;;;11.10;99.90;;;;;;5013048;28;20874;-71
2022/12/26 13:10:32;;;;;;;52.07;1.37;;;11.10;99.90;;;;;;5012535;28;20895;-73
2022/12/26 13:13:02;;;;;;;51.30;0.93;;;11.10;99.90;;;;;;5009983;28;20451;-71
2022/12/26 13:15:35;;;;;;;53.20;1.20;;;11.00;99.90;;;;;;5011449;28;20467;-71
2022/12/26 13:18:22;;;;;;;53.10;0.90;;;11.10;99.90;;;;;;5011915;28;21176;-71
2022/12/26 13:20:53;;;;;;;50.30;0.93;;;11.10;99.90;;;;;;5012930;28;20469;-71
2022/12/26 13:26:44;;;;;;;52.10;1.30;;;11.00;99.90;;;;;;4995709;28;21125;-71
2022/12/26 13:29:17;;;;;;;82.60;7.03;;;11.00;99.90;;;;;;5013014;28;20526;-71
2022/12/26 13:31:43;;;;;;;70.60;3.90;;;11.00;99.90;;;;;;5011471;28;20567;-73
2022/12/26 13:34:15;;;;;;;54.00;1.10;;;11.00;99.90;;;;;;5012929;28;20441;-72
2022/12/26 13:36:49;;;;;;;54.20;0.90;;;11.10;99.90;;;;;;5011758;28;20575;-73
2022/12/26 13:39:33;;;;;;;55.60;1.37;;;11.10;99.90;;;;;;5013208;28;20454;-72
2022/12/26 13:45:36;;;;;;;29.10;0.80;;;11.10;99.90;;;;;;4999754;28;20914;-71
2022/12/26 13:48:11;;;;;;;29.03;0.90;;;11.10;99.90;;;;;;5012049;28;20440;-72
2022/12/26 13:50:52;;;;;;;28.10;0.80;;;11.10;99.90;;;;;;5012365;28;20453;-72
2022/12/26 13:53:23;;;;;;;28.90;1.00;;;11.10;99.90;;;;;;5012658;28;20495;-72
2022/12/26 13:55:49;;;;;;;28.73;0.70;;;11.20;99.90;;;;;;5012305;28;20551;-72
2022/12/26 13:58:24;;;;;;;29.90;1.03;;;11.20;99.90;;;;;;5011921;28;20473;-72
2022/12/26 14:00:51;;;;;;;32.20;2.10;;;11.20;99.90;;;;;;5012648;28;20473;-72
2022/12/26 14:03:31;;;;;;;43.10;3.33;;;11.10;99.90;;;;;;5011926;28;20814;-73
2022/12/26 14:06:26;;;;;;;54.03;8.20;;;11.10;99.90;;;;;;5011839;28;20449;-72
2022/12/26 14:09:15;;;;;;;44.53;1.90;;;11.10;99.90;;;;;;5011483;28;20761;-72
2022/12/26 14:11:58;;;;;;;41.97;3.03;;;11.10;99.90;;;;;;5008276;28;20458;-72
2022/12/26 14:14:29;;;;;;;48.40;4.63;;;11.00;99.90;;;;;;5012066;28;20453;-72
2022/12/26 14:17:12;;;;;;;67.10;12.07;;;11.00;99.90;;;;;;5012438;28;20507;-71
2022/12/26 14:20:09;;;;;;;64.33;6.50;;;10.90;99.90;;;;;;5012293;28;20453;-72
2022/12/26 14:22:38;;;;;;;58.20;4.70;;;11.00;99.90;;;;;;5011714;28;20468;-72
2022/12/26 14:25:25;;;;;;;54.90;2.10;;;11.00;99.90;;;;;;4996329;28;20453;-71
2022/12/26 14:28:21;;;;;;;53.50;2.70;;;11.00;99.90;;;;;;5012069;28;20464;-71
2022/12/26 14:30:50;;;;;;;55.97;3.27;;;11.00;99.90;;;;;;5012448;28;20445;-71
2022/12/26 14:33:37;;;;;;;56.23;1.73;;;10.90;99.90;;;;;;5011656;28;20475;-70
2022/12/26 14:36:27;;;;;;;59.27;3.30;;;10.90;99.90;;;;;;5011139;28;20452;-71
2022/12/26 14:39:19;;;;;;;68.50;4.57;;;10.90;99.90;;;;;;5012132;28;20974;-71
2022/12/26 14:44:56;;;;;;;51.03;1.80;;;10.80;99.90;;;;;;5011437;28;20440;-71
2022/12/26 14:47:45;;;;;;;1.20;0.80;;;10.80;99.90;;;;;;5009995;28;20528;-71
2022/12/26 14:50:39;;;;;;;2.30;0.90;;;10.90;99.90;;;;;;4997179;28;20460;-71
2022/12/26 14:53:16;;;;;;;1.20;1.00;;;10.90;99.90;;;;;;5003189;28;20480;-72
2022/12/26 14:55:53;;;;;;;1.40;0.90;;;10.90;99.90;;;;;;4999191;28;20880;-72
2022/12/26 14:58:43;;;;;;;1.50;0.83;;;10.80;99.90;;;;;;5010657;28;20507;-72
2022/12/26 15:01:11;;;;;;;1.40;0.70;;;10.80;99.90;;;;;;5011646;28;20446;-72
2022/12/26 15:03:58;;;;;;;1.40;0.93;;;10.80;99.90;;;;;;5012644;28;20459;-72
2022/12/26 15:07:01;;;;;;;1.53;0.93;;;10.80;99.90;;;;;;5012225;28;20425;-72
2022/12/26 15:09:38;;;;;;;1.50;1.13;;;10.80;99.90;;;;;;5005739;28;20428;-72
2022/12/26 15:12:22;;;;;;;1.30;0.80;;;10.80;99.90;;;;;;5012165;28;20840;-72
2022/12/26 15:15:26;;;;;;;12.53;1.30;;;10.70;99.90;;;;;;5012027;28;20436;-71
2022/12/26 15:18:20;;;;;;;1.00;0.80;;;10.70;99.90;;;;;;5011451;28;20495;-72
2022/12/26 15:21:07;;;;;;;1.10;0.80;;;10.70;99.90;;;;;;5011364;28;20574;-72
2022/12/26 15:24:07;;;;;;;1.87;0.90;;;10.60;99.90;;;;;;5011874;28;20429;-72
2022/12/26 15:26:52;;;;;;;1.73;1.47;;;10.60;99.90;;;;;;5012152;28;20507;-72
2022/12/26 15:29:50;;;;;;;1.70;1.53;;;10.60;99.90;;;;;;5010630;28;20489;-72
2022/12/26 15:32:21;;;;;;;1.83;1.70;;;10.50;99.90;;;;;;5010765;28;20839;-72
2022/12/26 15:35:02;;;;;;;1.80;1.03;;;10.50;99.90;;;;;;5011874;28;20479;-72
2022/12/26 15:38:13;;;;;;;1.10;0.73;;;10.50;99.90;;;;;;5011154;28;20467;-73
2022/12/26 15:40:50;;;;;;;1.20;0.80;;;10.50;99.90;;;;;;4988532;28;20432;-72
2022/12/26 15:44:06;;;;;;;1.83;0.80;;;10.50;99.90;;;;;;5011724;28;20980;-72
2022/12/26 15:46:40;;;;;;;1.93;1.17;;;10.50;99.90;;;;;;4969552;28;20832;-73
2022/12/26 15:49:31;;;;;;;151.00;82.37;;;10.50;99.90;;;;;;4984317;28;20427;-73
2022/12/26 15:52:00;;;;;;;2.53;1.00;;;10.50;99.90;;;;;;5007690;28;20970;-73
2022/12/26 15:54:49;;;;;;;3.07;0.90;;;10.40;99.90;;;;;;5011291;28;20430;-73
2022/12/26 15:57:28;;;;;;;1.43;0.80;;;10.40;99.90;;;;;;5009596;28;20531;-73
2022/12/26 16:00:14;;;;;;;1.10;0.70;;;10.40;99.90;;;;;;5010992;28;20416;-72
2022/12/26 16:03:04;;;;;;;2.30;1.20;;;10.40;99.90;;;;;;5007593;28;20429;-73
2022/12/26 16:05:42;;;;;;;1.17;0.77;;;10.30;99.90;;;;;;5008630;28;20433;-73
2022/12/26 16:08:45;;;;;;;1.00;0.70;;;10.30;99.90;;;;;;5011207;28;20925;-72
2022/12/26 16:11:17;;;;;;;4.73;0.77;;;10.30;99.90;;;;;;4996278;28;20992;-73
2022/12/26 16:14:00;;;;;;;1.23;0.70;;;10.30;99.90;;;;;;5010412;28;20418;-73
2022/12/26 16:16:33;;;;;;;0.90;0.80;;;10.30;99.90;;;;;;5005239;28;20483;-73
2022/12/26 16:19:19;;;;;;;1.77;0.90;;;10.30;99.90;;;;;;5010271;28;20460;-73
2022/12/26 16:24:39;;;;;;;2.33;0.80;;;10.20;99.90;;;;;;5006270;28;20496;-74
2022/12/26 16:27:08;;;;;;;1.10;0.80;;;10.10;99.90;;;;;;5010861;28;20492;-74